Hinkle, Kentucky
Current Conditions -  °F | °C
As of 8:53 AM on Friday 28 Nov 2014 (Local Time) from KLOZ Reporting Station
Few Clouds Few Clouds  
Wind Chill: 27°   Ceiling: Unl
Heat Index: 27°   Visibility: 10mi
Dew Point: 16°   Wind: 3mph
Humidity: 63%   Direction: 260°W
Pressure: 30.42"   Gusts: NA
Location:  36.91°N, 83.82°W
Report Text: KLOZ 281353Z AUTO 26003KT 10SM FEW090 M03/M09 A3042 RMK AO2 SLP312 T10281089
Loading
Personal Weather Stations






























Interactive Weather Map New forecast layout! Learn more

10-Day Weather Forecast

Advertisements
Track Severe Weather on mobile